Staffordsville, Virginia
Current Conditions -  °F | °C
As of 4:35 PM on Thursday 23 Oct 2014 (Local Time) from KPSK Reporting Station
Clear Clear  
Wind Chill: 56°   Ceiling: Unl
Heat Index: 56°   Visibility: 10mi
Dew Point: 42°   Wind: 13mph
Humidity: 59%   Direction: 320°NW
Pressure: 30.07"   Gusts: 17mph
Location:  37.24°N, 80.72°W
Report Text: KPSK 232035Z AUTO 32011G15KT 300V360 10SM CLR 14/06 A3007 RMK AO2 T01350057
Loading
Personal Weather Stations






























Interactive Weather Map
Tropical Storm Tracking
New forecast layout! Learn more

10-Day Weather Forecast

Advertisements
Track Severe Weather on mobile